KBNL/BNL METAR and TAF weather

Enter ICAO airport designator
Station Type Date Time Source
KBNL METAR 2021/09/24 02:35 UTC NOAA

KBNL 240235Z AUTO 00000KT 10SM FEW035 FEW041 16/14 A3003 RMK AO2 LTG DSNT SE


Station Type Date Time Source
KBNL Decoded METAR 2021/09/24 02:35 UTC NOAA

Station name not available
Sep 23, 2021 - 10:35 PM EDT / 2021.09.24 0235 UTC
Wind: Calm:0
Visibility: 10 mile(s):0
Sky conditions: mostly clear
Weather: Lightning observed
Temperature: 60 F (16 C)
Dew Point: 57 F (14 C)
Relative Humidity: 87%
Pressure (altimeter): 30.03 in. Hg (1016 hPa)
ob: KBNL 240235Z AUTO 00000KT 10SM FEW035 FEW041 16/14 A3003 RMK AO2 LTG DSNT SE
cycle: 2

Station Type Date Time Source
KBNL TAF UTC NOAA

Error!

Example: see airport list